Terminal Aerodrome Forecast
Issued by NWS

Home | Current Version | Previous Version | Text Only | Print | Product List | Glossary On
Versions: 1 2 3 4 5 6 7 8 9 10 11 12 13 14
000
FTUS43 KILX 250522
TAFDEC
TAF
KDEC 250522Z 2506/2606 15012KT P6SM VCSH OVC030
      TEMPO 2506/2507 4SM -SHRA OVC025
     FM250800 14015KT P6SM -SHRA VCTS SCT012 OVC025CB
     FM251300 13012G18KT 3SM -SHRA BR VCTS BKN007CB OVC015
     FM252000 06014KT 3SM -RA BR VCTS OVC007CB
     FM260200 03012G17KT 4SM BR VCSH BKN006 OVC012=

USA.gov is the U.S. government's official web portal to all federal, state and local government web resources and services.